createdAt,value
2022-09-03T00:00:48.597Z,17.35
2022-09-03T00:03:24.521Z,16.86
2022-09-03T00:06:07.497Z,17.05
2022-09-03T00:08:38.909Z,17.36
2022-09-03T00:11:16.590Z,17.38
2022-09-03T00:13:49.906Z,17.35
2022-09-03T00:16:21.530Z,17.26
2022-09-03T00:18:54.044Z,17.24
2022-09-03T00:21:37.603Z,16.78
2022-09-03T00:24:14.362Z,16.68
2022-09-03T00:26:46.747Z,16.74
2022-09-03T00:29:20.091Z,17.07
2022-09-03T00:31:54.707Z,16.72
2022-09-03T00:34:44.623Z,17.02
2022-09-03T00:37:14.481Z,16.28
2022-09-03T00:39:42.436Z,16.24
2022-09-03T00:42:43.708Z,16.82
2022-09-03T00:45:33.838Z,16.23
2022-09-03T00:48:12.532Z,16.77
2022-09-03T00:51:08.628Z,16.68
2022-09-03T00:53:51.447Z,16.52
2022-09-03T00:56:23.431Z,16.43
2022-09-03T00:59:18.909Z,16.33
2022-09-03T01:02:01.058Z,16.25
2022-09-03T01:05:09.479Z,16.19
2022-09-03T01:07:58.741Z,16.17
2022-09-03T01:10:44.475Z,15.93
2022-09-03T01:13:23.335Z,16.00
2022-09-03T01:16:27.356Z,15.98
2022-09-03T01:19:15.721Z,15.98
2022-09-03T01:22:28.789Z,16.01
2022-09-03T01:25:17.574Z,15.93
2022-09-03T01:28:14.742Z,14.77
2022-09-03T01:30:49.154Z,15.85
2022-09-03T01:33:38.381Z,15.88
2022-09-03T01:36:11.684Z,15.87
2022-09-03T01:38:51.221Z,15.83
2022-09-03T01:41:40.525Z,15.45
2022-09-03T01:44:43.483Z,15.56
2022-09-03T01:47:26.763Z,15.71
2022-09-03T01:50:05.087Z,15.76
2022-09-03T01:52:56.241Z,14.38
2022-09-03T01:55:33.913Z,15.18
2022-09-03T01:58:14.149Z,15.56
2022-09-03T02:00:45.164Z,14.90
2022-09-03T02:03:13.409Z,15.20
2022-09-03T02:05:39.905Z,15.02
2022-09-03T02:08:08.786Z,15.41
2022-09-03T02:10:44.320Z,15.42
2022-09-03T02:13:16.042Z,15.10
2022-09-03T02:15:45.844Z,15.38
2022-09-03T02:18:20.942Z,14.35
2022-09-03T02:20:48.547Z,14.98
2022-09-03T02:23:15.726Z,14.87
2022-09-03T02:25:47.770Z,14.52
2022-09-03T02:28:17.432Z,15.16
2022-09-03T02:30:44.427Z,14.47
2022-09-03T02:33:11.151Z,14.78
2022-09-03T02:35:37.876Z,14.93
2022-09-03T02:38:16.980Z,14.95
2022-09-03T02:40:44.512Z,15.06
2022-09-03T02:43:20.725Z,14.50
2022-09-03T02:45:57.070Z,14.25
2022-09-03T02:48:24.667Z,14.89
2022-09-03T02:50:51.584Z,14.71
2022-09-03T02:53:17.969Z,14.73
2022-09-03T02:55:44.582Z,14.84
2022-09-03T02:58:11.297Z,14.52
2022-09-03T03:00:37.962Z,14.68
2022-09-03T03:03:05.712Z,14.32
2022-09-03T03:05:43.777Z,14.75
2022-09-03T03:08:12.213Z,14.65
2022-09-03T03:10:38.646Z,14.66
2022-09-03T03:13:05.042Z,14.50
2022-09-03T03:15:31.449Z,13.97
2022-09-03T03:17:58.145Z,14.76
2022-09-03T03:20:24.605Z,14.36
2022-09-03T03:22:50.988Z,14.25
2022-09-03T03:25:21.574Z,14.69
2022-09-03T03:27:47.967Z,14.72
2022-09-03T03:30:14.578Z,14.53
2022-09-03T03:32:40.967Z,14.08
2022-09-03T03:35:07.788Z,14.64
2022-09-03T03:37:35.576Z,14.62
2022-09-03T03:40:02.733Z,14.31
2022-09-03T03:42:29.204Z,14.58
2022-09-03T03:44:55.773Z,14.24
2022-09-03T03:47:22.186Z,13.98
2022-09-03T03:49:48.699Z,14.21
2022-09-03T03:52:15.068Z,14.47
2022-09-03T03:54:41.426Z,13.40
2022-09-03T03:57:07.780Z,14.53
2022-09-03T03:59:34.156Z,14.13
2022-09-03T04:02:00.714Z,14.58
2022-09-03T04:04:27.221Z,14.54
2022-09-03T04:06:53.681Z,14.07
2022-09-03T04:09:20.288Z,14.41
2022-09-03T04:11:46.672Z,14.40
2022-09-03T04:14:13.073Z,14.40
2022-09-03T04:16:39.504Z,14.36
2022-09-03T04:19:05.915Z,13.82
2022-09-03T04:21:32.368Z,14.34
2022-09-03T04:23:59.178Z,14.30
2022-09-03T04:26:32.623Z,14.30
2022-09-03T04:29:03.356Z,13.54
2022-09-03T04:31:30.834Z,13.93
2022-09-03T04:33:58.571Z,13.68
2022-09-03T04:36:28.184Z,14.22
2022-09-03T04:38:56.073Z,13.98
2022-09-03T04:41:25.335Z,14.04
2022-09-03T04:43:53.405Z,13.84
2022-09-03T04:46:21.647Z,13.60
2022-09-03T04:48:51.153Z,14.17
2022-09-03T04:51:20.964Z,13.82
2022-09-03T04:53:49.896Z,13.94
2022-09-03T04:56:19.257Z,13.71
2022-09-03T04:58:46.830Z,14.36
2022-09-03T05:01:19.992Z,13.42
2022-09-03T05:03:46.905Z,14.45
2022-09-03T05:06:14.514Z,14.18
2022-09-03T05:08:40.881Z,14.35
2022-09-03T05:11:08.368Z,14.01
2022-09-03T05:13:36.868Z,14.56
2022-09-03T05:16:06.332Z,14.56
2022-09-03T05:18:35.723Z,14.31
2022-09-03T05:21:04.561Z,14.07
2022-09-03T05:23:36.920Z,14.07
2022-09-03T05:26:10.908Z,14.79
2022-09-03T05:28:39.914Z,14.50
2022-09-03T05:31:14.773Z,14.19
2022-09-03T05:33:43.943Z,15.02
2022-09-03T05:36:13.554Z,14.91
2022-09-03T05:38:40.410Z,14.80
2022-09-03T05:41:09.512Z,14.00
2022-09-03T05:43:36.821Z,15.38
2022-09-03T05:46:06.362Z,15.32
2022-09-03T05:48:37.573Z,15.65
2022-09-03T05:51:06.616Z,14.99
2022-09-03T05:53:35.081Z,15.96
2022-09-03T05:56:06.134Z,15.87
2022-09-03T05:58:39.323Z,16.17
2022-09-03T06:01:16.685Z,15.71
2022-09-03T06:03:44.753Z,16.43
2022-09-03T06:06:13.910Z,16.32
2022-09-03T06:08:41.530Z,16.06
2022-09-03T06:11:08.209Z,16.35
2022-09-03T06:13:35.478Z,16.93
2022-09-03T06:16:07.066Z,16.55
2022-09-03T06:18:33.637Z,17.13
2022-09-03T06:21:06.224Z,17.05
2022-09-03T06:23:34.637Z,16.59
2022-09-03T06:26:06.574Z,17.26
2022-09-03T06:28:38.754Z,17.60
2022-09-03T06:31:07.953Z,17.49
2022-09-03T06:33:36.371Z,17.54
2022-09-03T06:36:08.854Z,17.85
2022-09-03T06:38:36.263Z,17.91
2022-09-03T06:41:06.507Z,17.98
2022-09-03T06:43:35.867Z,17.62
2022-09-03T06:46:06.125Z,17.95
2022-09-03T06:48:34.479Z,17.97
2022-09-03T06:51:06.877Z,18.07
2022-09-03T06:53:38.404Z,17.83
2022-09-03T06:56:10.411Z,18.25
2022-09-03T06:58:39.913Z,18.32
2022-09-03T07:01:13.333Z,18.32
2022-09-03T07:03:41.369Z,17.65
2022-09-03T07:06:10.113Z,18.30
2022-09-03T07:08:36.780Z,18.69
2022-09-03T07:11:08.816Z,18.70
2022-09-03T07:13:41.698Z,18.68
2022-09-03T07:16:19.459Z,18.78
2022-09-03T07:18:46.684Z,18.61
2022-09-03T07:21:15.814Z,19.00
2022-09-03T07:23:43.005Z,18.64
2022-09-03T07:26:15.811Z,18.68
2022-09-03T07:28:43.915Z,18.82
2022-09-03T07:31:16.802Z,19.32
2022-09-03T07:33:43.255Z,18.98
2022-09-03T07:36:14.247Z,19.69
2022-09-03T07:38:44.491Z,19.70
2022-09-03T07:41:12.304Z,19.97
2022-09-03T07:43:47.061Z,20.01
2022-09-03T07:46:24.545Z,20.44
2022-09-03T07:48:58.884Z,19.97
2022-09-03T07:51:28.293Z,20.41
2022-09-03T07:54:00.437Z,20.23
2022-09-03T07:56:27.630Z,19.83
2022-09-03T07:58:57.124Z,19.78
2022-09-03T08:01:25.106Z,20.01
2022-09-03T08:03:53.245Z,19.74
2022-09-03T08:06:22.660Z,18.72
2022-09-03T08:08:49.491Z,19.93
2022-09-03T08:11:18.312Z,19.63
2022-09-03T08:13:48.121Z,20.01
2022-09-03T08:16:18.325Z,19.96
2022-09-03T08:18:46.657Z,19.91
2022-09-03T08:21:15.920Z,19.95
2022-09-03T08:23:44.130Z,19.91
2022-09-03T08:26:11.448Z,18.94
2022-09-03T08:28:38.321Z,19.17
2022-09-03T08:31:10.122Z,19.87
2022-09-03T08:33:42.388Z,20.22
2022-09-03T08:36:15.301Z,20.23
2022-09-03T08:38:43.678Z,20.00
2022-09-03T08:41:15.853Z,20.43
2022-09-03T08:43:56.953Z,20.05
2022-09-03T08:46:33.770Z,21.14
2022-09-03T08:49:00.790Z,21.69
2022-09-03T08:51:30.927Z,21.96
2022-09-03T08:53:58.909Z,22.32
2022-09-03T08:56:29.068Z,21.96
2022-09-03T08:58:55.883Z,22.57
2022-09-03T09:01:48.927Z,22.59
2022-09-03T09:04:30.820Z,22.96
2022-09-03T09:07:12.622Z,22.21
2022-09-03T09:10:09.569Z,21.74
2022-09-03T09:12:46.983Z,21.51
2022-09-03T09:15:19.395Z,21.15
2022-09-03T09:17:54.546Z,20.74
2022-09-03T09:20:42.610Z,20.55
2022-09-03T09:23:14.604Z,19.97
2022-09-03T09:25:51.423Z,21.20
2022-09-03T09:28:23.162Z,20.75
2022-09-03T09:30:53.978Z,21.12
2022-09-03T09:33:21.313Z,21.40
2022-09-03T09:35:48.507Z,21.21
2022-09-03T09:38:16.377Z,21.37
2022-09-03T09:40:45.551Z,21.46
2022-09-03T09:43:16.270Z,21.62
2022-09-03T09:45:48.441Z,21.36
2022-09-03T09:48:21.018Z,21.79
2022-09-03T09:50:47.540Z,21.76
2022-09-03T09:53:18.600Z,21.29
2022-09-03T09:55:56.033Z,21.76
2022-09-03T09:58:28.336Z,21.97
2022-09-03T10:01:08.019Z,21.88
2022-09-03T10:03:37.596Z,21.74
2022-09-03T10:06:47.896Z,21.44
2022-09-03T10:09:19.830Z,21.51
2022-09-03T10:12:14.318Z,21.80
2022-09-03T10:14:51.369Z,21.75
2022-09-03T10:17:36.650Z,22.85
2022-09-03T10:20:32.451Z,22.61
2022-09-03T10:23:04.625Z,22.48
2022-09-03T10:25:53.644Z,22.24
2022-09-03T10:28:25.913Z,22.30
2022-09-03T10:31:31.482Z,22.36
2022-09-03T10:34:04.475Z,22.41
2022-09-03T10:36:37.361Z,21.81
2022-09-03T10:39:29.524Z,22.00
2022-09-03T10:42:28.517Z,21.73
2022-09-03T10:44:54.963Z,22.66
2022-09-03T10:47:39.912Z,22.83
2022-09-03T10:50:27.178Z,23.14
2022-09-03T10:53:05.266Z,23.75
2022-09-03T10:55:44.277Z,23.81
2022-09-03T10:58:55.564Z,23.91
2022-09-03T11:01:47.145Z,23.88
2022-09-03T11:04:28.341Z,23.74
2022-09-03T11:07:02.470Z,22.86
2022-09-03T11:09:40.713Z,23.24
2022-09-03T11:12:22.211Z,23.22
2022-09-03T11:15:03.705Z,23.27
2022-09-03T11:17:36.579Z,23.05
2022-09-03T11:20:20.737Z,23.41
2022-09-03T11:22:50.397Z,23.22
2022-09-03T11:25:20.095Z,23.29
2022-09-03T11:28:21.732Z,23.72
2022-09-03T11:31:04.331Z,23.35
2022-09-03T11:33:33.685Z,23.48
2022-09-03T11:36:01.723Z,24.04
2022-09-03T11:38:32.008Z,23.81
2022-09-03T11:41:16.553Z,23.65
2022-09-03T11:43:44.233Z,24.38
2022-09-03T11:46:26.839Z,24.26
2022-09-03T11:49:09.261Z,24.51
2022-09-03T11:51:41.828Z,24.63
2022-09-03T11:54:14.216Z,25.20
2022-09-03T11:56:42.541Z,25.15
2022-09-03T11:59:18.649Z,24.89
2022-09-03T12:01:57.497Z,24.76
2022-09-03T12:04:43.129Z,24.99
2022-09-03T12:07:31.710Z,25.39
2022-09-03T12:10:24.703Z,25.50
2022-09-03T12:13:18.985Z,25.52
2022-09-03T12:16:23.183Z,24.55
2022-09-03T12:18:53.010Z,25.30
2022-09-03T12:21:20.510Z,26.04
2022-09-03T12:23:58.185Z,25.10
2022-09-03T12:26:27.273Z,24.44
2022-09-03T12:28:57.101Z,25.69
2022-09-03T12:31:30.076Z,25.09
2022-09-03T12:34:01.648Z,25.36
2022-09-03T12:36:44.476Z,25.31
2022-09-03T12:42:26.570Z,26.07
2022-09-03T12:44:53.578Z,26.19
2022-09-03T12:47:38.574Z,25.97
2022-09-03T12:50:08.246Z,26.07
2022-09-03T12:52:46.545Z,25.79
2022-09-03T12:55:47.318Z,26.10
2022-09-03T12:58:24.866Z,26.25
2022-09-03T13:01:09.973Z,26.07
2022-09-03T13:03:45.817Z,25.36
2022-09-03T13:06:15.745Z,25.43
2022-09-03T13:08:47.494Z,24.81
2022-09-03T13:11:19.734Z,26.07
2022-09-03T13:13:55.264Z,26.14
2022-09-03T13:16:47.483Z,26.47
2022-09-03T13:19:38.604Z,26.03
2022-09-03T13:22:47.435Z,25.12
2022-09-03T13:25:20.867Z,26.48
2022-09-03T13:28:07.715Z,26.65
2022-09-03T13:31:09.324Z,25.71
2022-09-03T13:33:45.586Z,26.86
2022-09-03T13:36:31.948Z,27.06
2022-09-03T13:39:17.362Z,26.55
2022-09-03T13:41:57.164Z,26.44
2022-09-03T13:44:45.118Z,26.89
2022-09-03T13:47:33.099Z,26.93
2022-09-03T13:50:22.253Z,26.19
2022-09-03T13:52:52.193Z,26.62
2022-09-03T13:55:29.069Z,26.58
2022-09-03T13:58:08.077Z,26.60
2022-09-03T14:00:51.284Z,25.92
2022-09-03T14:03:17.740Z,26.33
2022-09-03T14:06:01.506Z,26.43
2022-09-03T14:08:54.281Z,26.19
2022-09-03T14:11:31.334Z,26.26
2022-09-03T14:14:00.669Z,26.83
2022-09-03T14:16:44.665Z,26.77
2022-09-03T14:19:21.062Z,27.00
2022-09-03T14:21:54.887Z,26.98
2022-09-03T14:24:26.458Z,26.82
2022-09-03T14:27:00.398Z,26.23
2022-09-03T14:29:32.497Z,26.39
2022-09-03T14:32:26.201Z,26.94
2022-09-03T14:35:11.602Z,26.99
2022-09-03T14:38:08.672Z,26.69
2022-09-03T14:40:45.430Z,26.19
2022-09-03T14:43:27.878Z,26.51
2022-09-03T14:46:15.749Z,26.98
2022-09-03T14:49:00.241Z,27.08
2022-09-03T14:51:47.825Z,27.01
2022-09-03T14:54:26.549Z,26.97
2022-09-03T14:57:16.716Z,26.60
2022-09-03T15:00:01.569Z,27.02
2022-09-03T15:02:34.278Z,27.24
2022-09-03T15:05:11.465Z,26.40
2022-09-03T15:08:01.203Z,27.62
2022-09-03T15:10:50.315Z,27.35
2022-09-03T15:13:26.078Z,27.57
2022-09-03T15:16:02.154Z,27.68
2022-09-03T15:18:58.589Z,27.69
2022-09-03T15:21:27.952Z,27.81
2022-09-03T15:24:23.747Z,27.70
2022-09-03T15:27:12.489Z,27.45
2022-09-03T15:29:50.442Z,26.73
2022-09-03T15:32:29.478Z,26.76
2022-09-03T15:35:07.148Z,26.60
2022-09-03T15:37:57.829Z,25.47
2022-09-03T15:40:32.325Z,25.59
2022-09-03T15:43:21.758Z,26.47
2022-09-03T15:45:59.802Z,26.17
2022-09-03T15:48:32.097Z,26.40
2022-09-03T15:51:09.930Z,26.32
2022-09-03T15:54:01.771Z,26.64
2022-09-03T15:56:38.516Z,26.12
2022-09-03T15:59:14.583Z,26.33
2022-09-03T16:01:51.375Z,26.00
2022-09-03T16:04:33.446Z,26.14
2022-09-03T16:07:07.666Z,26.35
2022-09-03T16:10:25.963Z,26.46
2022-09-03T16:13:04.615Z,26.38
2022-09-03T16:15:36.651Z,26.27
2022-09-03T16:18:12.170Z,26.01
2022-09-03T16:20:43.485Z,25.80
2022-09-03T16:23:54.710Z,25.92
2022-09-03T16:26:34.575Z,25.11
2022-09-03T16:29:08.514Z,25.65
2022-09-03T16:31:49.964Z,25.69
2022-09-03T16:34:39.666Z,25.73
2022-09-03T16:37:14.956Z,25.77
2022-09-03T16:40:13.387Z,25.82
2022-09-03T16:42:54.190Z,25.46
2022-09-03T16:45:29.578Z,25.75
2022-09-03T16:48:14.667Z,25.67
2022-09-03T16:50:48.334Z,25.71
2022-09-03T16:53:33.899Z,24.52
2022-09-03T16:56:19.395Z,25.12
2022-09-03T16:59:10.663Z,25.32
2022-09-03T17:01:46.063Z,25.38
2022-09-03T17:04:29.844Z,25.28
2022-09-03T17:07:06.301Z,24.20
2022-09-03T17:10:21.633Z,24.91
2022-09-03T17:13:02.319Z,24.75
2022-09-03T17:15:38.030Z,24.63
2022-09-03T17:18:33.269Z,24.13
2022-09-03T17:21:07.135Z,24.45
2022-09-03T17:23:38.143Z,24.27
2022-09-03T17:26:12.987Z,23.76
2022-09-03T17:29:04.616Z,23.97
2022-09-03T17:32:12.818Z,23.66
2022-09-03T17:34:51.395Z,23.74
2022-09-03T17:37:33.015Z,23.59
2022-09-03T17:40:18.111Z,23.50
2022-09-03T17:43:14.479Z,23.42
2022-09-03T17:45:49.506Z,23.23
2022-09-03T17:48:18.898Z,22.92
2022-09-03T17:51:12.837Z,22.19
2022-09-03T17:53:48.919Z,22.58
2022-09-03T17:56:34.567Z,21.92
2022-09-03T17:59:12.307Z,22.15
2022-09-03T18:01:51.432Z,22.08
2022-09-03T18:04:44.123Z,22.18
2022-09-03T18:07:23.671Z,21.41
2022-09-03T18:10:19.960Z,20.94
2022-09-03T18:12:56.211Z,21.72
2022-09-03T18:15:48.211Z,21.61
2022-09-03T18:18:28.986Z,21.42
2022-09-03T18:21:29.260Z,21.44
2022-09-03T18:24:36.430Z,21.11
2022-09-03T18:27:29.502Z,20.35
2022-09-03T18:30:34.712Z,21.15
2022-09-03T18:33:19.548Z,20.96
2022-09-03T18:36:05.587Z,21.06
2022-09-03T18:38:54.329Z,21.01
2022-09-03T18:42:14.007Z,20.89
2022-09-03T18:45:21.613Z,20.82
2022-09-03T18:48:19.664Z,20.67
2022-09-03T18:51:15.987Z,20.33
2022-09-03T18:54:16.559Z,19.91
2022-09-03T18:57:11.982Z,20.31
2022-09-03T19:00:26.684Z,20.25
2022-09-03T19:03:40.205Z,20.15
2022-09-03T19:06:37.167Z,20.03
2022-09-03T19:09:36.760Z,19.55
2022-09-03T19:12:34.292Z,18.62
2022-09-03T19:15:42.114Z,19.84
2022-09-03T19:18:45.854Z,19.75
2022-09-03T19:21:43.238Z,19.62
2022-09-03T19:24:28.325Z,19.60
2022-09-03T19:27:52.976Z,19.55
2022-09-03T19:30:37.157Z,18.89
2022-09-03T19:33:40.714Z,19.17
2022-09-03T19:36:54.136Z,18.62
2022-09-03T19:40:13.895Z,19.20
2022-09-03T19:43:23.604Z,19.19
2022-09-03T19:46:23.768Z,19.20
2022-09-03T19:49:31.656Z,19.09
2022-09-03T19:52:33.431Z,19.04
2022-09-03T19:55:20.424Z,19.01
2022-09-03T19:58:26.171Z,18.43
2022-09-03T20:01:18.582Z,18.88
2022-09-03T20:04:03.707Z,18.13
2022-09-03T20:06:52.135Z,18.22
2022-09-03T20:09:49.058Z,18.61
2022-09-03T20:12:31.919Z,18.74
2022-09-03T20:15:33.631Z,18.63
2022-09-03T20:18:10.231Z,18.24
2022-09-03T20:21:31.179Z,18.57
2022-09-03T20:24:40.289Z,18.53
2022-09-03T20:27:53.605Z,18.48
2022-09-03T20:30:35.190Z,18.44
2022-09-03T20:33:29.791Z,18.24
2022-09-03T20:36:05.779Z,18.39
2022-09-03T20:39:11.443Z,13.79
2022-09-03T20:41:52.885Z,18.34
2022-09-03T20:44:25.365Z,17.44
2022-09-03T20:47:33.224Z,18.27
2022-09-03T20:50:59.406Z,18.21
2022-09-03T20:54:02.225Z,18.04
2022-09-03T20:56:46.709Z,18.09
2022-09-03T20:59:32.606Z,18.12
2022-09-03T21:02:16.098Z,17.45
2022-09-03T21:05:03.895Z,16.74
2022-09-03T21:07:56.802Z,17.96
2022-09-03T21:11:01.797Z,16.80
2022-09-03T21:13:31.655Z,17.80
2022-09-03T21:16:40.838Z,17.94
2022-09-03T21:19:37.788Z,17.88
2022-09-03T21:22:45.261Z,16.94
2022-09-03T21:25:33.953Z,15.05
2022-09-03T21:28:25.225Z,17.79
2022-09-03T21:31:09.476Z,16.64
2022-09-03T21:34:28.547Z,17.71
2022-09-03T21:36:36.826Z,17.72
2022-09-03T21:39:21.119Z,14.61
2022-09-03T21:42:15.253Z,17.63
2022-09-03T21:44:56.199Z,17.60
2022-09-03T21:47:30.238Z,16.93
2022-09-03T21:50:24.705Z,17.50
2022-09-03T21:53:20.109Z,17.46
2022-09-03T21:56:07.184Z,17.46
2022-09-03T21:59:11.679Z,17.47
2022-09-03T22:02:04.241Z,17.40
2022-09-03T22:04:32.066Z,17.19
2022-09-03T22:07:14.192Z,16.09
2022-09-03T22:10:16.840Z,17.26
2022-09-03T22:13:23.530Z,17.21
2022-09-03T22:16:04.083Z,15.81
2022-09-03T22:18:40.037Z,17.22
2022-09-03T22:21:24.188Z,17.20
2022-09-03T22:23:58.269Z,17.14
2022-09-03T22:27:11.827Z,16.62
2022-09-03T22:30:05.513Z,17.05
2022-09-03T22:32:57.978Z,17.06
2022-09-03T22:36:08.502Z,17.02
2022-09-03T22:38:55.787Z,16.25
2022-09-03T22:42:03.174Z,17.03
2022-09-03T22:44:55.469Z,16.93
2022-09-03T22:47:54.501Z,16.88
2022-09-03T22:50:51.273Z,16.34
2022-09-03T22:53:58.313Z,16.65
2022-09-03T22:56:55.365Z,16.72
2022-09-03T22:59:48.643Z,16.27
2022-09-03T23:02:23.538Z,16.61
2022-09-03T23:05:14.069Z,16.58
2022-09-03T23:08:23.740Z,16.55
2022-09-03T23:11:23.710Z,16.48
2022-09-03T23:14:05.355Z,15.04
2022-09-03T23:17:12.122Z,15.60
2022-09-03T23:19:51.260Z,16.48
2022-09-03T23:22:26.786Z,16.45
2022-09-03T23:25:21.757Z,16.42
2022-09-03T23:28:05.033Z,15.86
2022-09-03T23:30:32.760Z,16.40
2022-09-03T23:33:08.902Z,16.42
2022-09-03T23:35:59.707Z,16.45
2022-09-03T23:39:10.136Z,16.41
2022-09-03T23:41:51.523Z,15.49
2022-09-03T23:44:27.591Z,16.40
2022-09-03T23:47:16.340Z,15.22
2022-09-03T23:50:05.567Z,16.44
2022-09-03T23:52:37.924Z,15.31
2022-09-03T23:55:11.327Z,16.49
2022-09-03T23:58:21.921Z,16.48
